createdAt,value
2022-10-06T00:00:40.902Z,100810.63
2022-10-06T00:03:07.165Z,100811.16
2022-10-06T00:05:33.428Z,100809.06
2022-10-06T00:07:59.684Z,100810.13
2022-10-06T00:10:25.970Z,100812.13
2022-10-06T00:12:52.259Z,100813.44
2022-10-06T00:15:18.530Z,100812.25
2022-10-06T00:17:44.789Z,100806.50
2022-10-06T00:20:11.051Z,100804.81
2022-10-06T00:22:37.322Z,100803.47
2022-10-06T00:25:03.566Z,100806.22
2022-10-06T00:27:29.823Z,100809.03
2022-10-06T00:29:56.066Z,100803.81
2022-10-06T00:32:22.313Z,100809.22
2022-10-06T00:34:48.572Z,100800.16
2022-10-06T00:37:14.818Z,100805.44
2022-10-06T00:39:41.608Z,100809.59
2022-10-06T00:42:07.864Z,100818.69
2022-10-06T00:44:34.140Z,100814.50
2022-10-06T00:47:00.396Z,100812.56
2022-10-06T00:49:26.669Z,100804.72
2022-10-06T00:51:52.955Z,100812.31
2022-10-06T00:54:19.219Z,100801.75
2022-10-06T00:56:45.515Z,100803.13
2022-10-06T00:59:11.783Z,100800.03
2022-10-06T01:01:38.117Z,100801.13
2022-10-06T01:04:04.480Z,100808.00
2022-10-06T01:06:30.830Z,100816.84
2022-10-06T01:08:57.100Z,100798.44
2022-10-06T01:11:23.354Z,100809.75
2022-10-06T01:13:49.684Z,100805.78
2022-10-06T01:16:15.979Z,100802.38
2022-10-06T01:18:42.754Z,100809.59
2022-10-06T01:21:09.013Z,100820.91
2022-10-06T01:23:35.285Z,100812.19
2022-10-06T01:26:01.540Z,100812.06
2022-10-06T01:28:28.345Z,100818.81
2022-10-06T01:30:54.983Z,100829.38
2022-10-06T01:33:21.306Z,100828.47
2022-10-06T01:35:47.558Z,100827.63
2022-10-06T01:38:13.816Z,100822.72
2022-10-06T01:40:40.063Z,100830.19
2022-10-06T01:43:06.331Z,100830.16
2022-10-06T01:45:32.576Z,100838.59
2022-10-06T01:47:58.994Z,100841.00
2022-10-06T01:50:25.324Z,100837.75
2022-10-06T01:52:51.582Z,100835.16
2022-10-06T01:55:17.839Z,100840.38
2022-10-06T01:57:44.110Z,100839.75
2022-10-06T02:00:10.374Z,100840.75
2022-10-06T02:02:36.622Z,100852.38
2022-10-06T02:05:02.887Z,100852.09
2022-10-06T02:07:29.202Z,100862.88
2022-10-06T02:09:55.479Z,100860.03
2022-10-06T02:12:21.764Z,100868.00
2022-10-06T02:14:48.023Z,100856.75
2022-10-06T02:17:14.331Z,100862.78
2022-10-06T02:19:40.586Z,100868.91
2022-10-06T02:22:06.834Z,100875.97
2022-10-06T02:24:33.416Z,100873.63
2022-10-06T02:27:00.438Z,100885.84
2022-10-06T02:29:26.691Z,100882.41
2022-10-06T02:31:52.956Z,100892.94
2022-10-06T02:34:19.199Z,100895.63
2022-10-06T02:36:45.452Z,100897.22
2022-10-06T02:39:11.743Z,100897.97
2022-10-06T02:41:37.989Z,100903.22
2022-10-06T02:44:04.236Z,100897.63
2022-10-06T02:46:31.400Z,100900.19
2022-10-06T02:48:57.718Z,100902.69
2022-10-06T02:51:23.974Z,100887.91
2022-10-06T02:53:50.403Z,100902.28
2022-10-06T02:56:16.800Z,100901.00
2022-10-06T02:58:43.184Z,100897.88
2022-10-06T03:01:09.431Z,100881.16
2022-10-06T03:03:35.720Z,100882.66
2022-10-06T03:06:02.016Z,100881.91
2022-10-06T03:08:28.561Z,100884.09
2022-10-06T03:10:55.032Z,100902.53
2022-10-06T03:13:21.424Z,100901.63
2022-10-06T03:15:47.719Z,100908.47
2022-10-06T03:18:14.008Z,100916.66
2022-10-06T03:20:40.264Z,100915.44
2022-10-06T03:23:09.222Z,100916.66
2022-10-06T03:25:39.032Z,100925.78
2022-10-06T03:28:05.326Z,100921.38
2022-10-06T03:30:31.612Z,100917.47
2022-10-06T03:32:59.776Z,100927.81
2022-10-06T03:35:26.040Z,100932.78
2022-10-06T03:37:52.309Z,100932.78
2022-10-06T03:40:19.267Z,100941.06
2022-10-06T03:42:45.519Z,100936.94
2022-10-06T03:45:11.771Z,100948.78
2022-10-06T03:47:38.045Z,100943.50
2022-10-06T03:50:04.298Z,100951.75
2022-10-06T03:52:30.552Z,100952.19
2022-10-06T03:54:56.806Z,100969.34
2022-10-06T03:57:23.106Z,100964.19
2022-10-06T03:59:49.368Z,100972.38
2022-10-06T04:02:15.742Z,100969.38
2022-10-06T04:04:42.015Z,100969.16
2022-10-06T04:07:08.868Z,100976.72
2022-10-06T04:09:36.571Z,100987.91
2022-10-06T04:12:02.875Z,100985.34
2022-10-06T04:14:29.201Z,100987.81
2022-10-06T04:16:57.053Z,100979.72
2022-10-06T04:19:23.310Z,100985.97
2022-10-06T04:21:49.609Z,100987.38
2022-10-06T04:24:18.297Z,100999.03
2022-10-06T04:26:48.838Z,101000.53
2022-10-06T04:29:15.197Z,100995.03
2022-10-06T04:31:42.393Z,101005.59
2022-10-06T04:34:08.969Z,101014.22
2022-10-06T04:36:35.228Z,101004.66
2022-10-06T04:39:02.657Z,101011.50
2022-10-06T04:41:28.964Z,101004.66
2022-10-06T04:43:55.256Z,100998.50
2022-10-06T04:46:42.066Z,101005.50
2022-10-06T04:49:07.767Z,101004.75
2022-10-06T04:51:34.066Z,101001.06
2022-10-06T04:54:01.106Z,101005.06
2022-10-06T04:56:27.283Z,101011.94
2022-10-06T04:58:53.557Z,101021.97
2022-10-06T05:01:19.897Z,101033.72
2022-10-06T05:03:46.197Z,101033.25
2022-10-06T05:06:12.467Z,101032.06
2022-10-06T05:08:38.714Z,101042.63
2022-10-06T05:11:04.992Z,101055.94
2022-10-06T05:13:31.581Z,101059.03
2022-10-06T05:15:58.011Z,101067.66
2022-10-06T05:18:24.388Z,101067.56
2022-10-06T05:20:50.699Z,101066.56
2022-10-06T05:23:18.702Z,101070.03
2022-10-06T05:25:44.973Z,101074.91
2022-10-06T05:28:11.297Z,101080.00
2022-10-06T05:30:37.617Z,101065.53
2022-10-06T05:33:03.899Z,101075.44
2022-10-06T05:35:30.156Z,101073.50
2022-10-06T05:37:56.415Z,101083.91
2022-10-06T05:40:23.075Z,101089.69
2022-10-06T05:42:49.351Z,101094.06
2022-10-06T05:45:15.632Z,101105.13
2022-10-06T05:47:42.155Z,101094.38
2022-10-06T05:50:08.417Z,101101.69
2022-10-06T05:52:34.680Z,101105.53
2022-10-06T05:55:00.927Z,101114.38
2022-10-06T05:57:27.201Z,101118.44
2022-10-06T05:59:53.488Z,101122.63
2022-10-06T06:02:19.844Z,101126.44
2022-10-06T06:04:46.143Z,101134.09
2022-10-06T06:07:12.462Z,101140.88
2022-10-06T06:09:38.720Z,101136.44
2022-10-06T06:12:05.241Z,101144.69
2022-10-06T06:14:50.329Z,101154.41
2022-10-06T06:17:16.603Z,101165.13
2022-10-06T06:19:42.855Z,101176.94
2022-10-06T06:22:09.145Z,101175.94
2022-10-06T06:24:35.391Z,101183.47
2022-10-06T06:27:01.655Z,101188.50
2022-10-06T06:29:27.912Z,101216.31
2022-10-06T06:31:54.186Z,101246.88
2022-10-06T06:34:20.504Z,101250.06
2022-10-06T06:36:53.401Z,101273.22
2022-10-06T06:39:21.102Z,101283.22
2022-10-06T06:41:47.396Z,101298.19
2022-10-06T06:44:13.818Z,101316.47
2022-10-06T06:46:40.159Z,101328.50
2022-10-06T06:49:06.523Z,101335.66
2022-10-06T06:51:34.456Z,101345.91
2022-10-06T06:54:02.411Z,101366.94
2022-10-06T06:56:28.705Z,101368.66
2022-10-06T06:58:54.950Z,101377.16
2022-10-06T07:01:21.228Z,101373.47
2022-10-06T07:04:03.381Z,101379.53
2022-10-06T07:06:29.707Z,101395.44
2022-10-06T07:08:56.006Z,101412.06
2022-10-06T07:11:22.298Z,101418.78
2022-10-06T07:13:48.547Z,101435.75
2022-10-06T07:16:33.660Z,101431.97
2022-10-06T07:19:23.833Z,101447.13
2022-10-06T07:22:09.850Z,101445.16
2022-10-06T07:24:54.686Z,101453.38
2022-10-06T07:27:20.960Z,101456.84
2022-10-06T07:29:47.214Z,101463.69
2022-10-06T07:32:13.484Z,101467.00
2022-10-06T07:34:40.249Z,101474.22
2022-10-06T07:37:06.695Z,101477.78
2022-10-06T07:39:33.041Z,101476.03
2022-10-06T07:41:59.303Z,101477.66
2022-10-06T07:44:25.567Z,101476.91
2022-10-06T07:46:52.258Z,101482.78
2022-10-06T07:49:18.520Z,101500.47
2022-10-06T07:51:44.798Z,101491.13
2022-10-06T07:54:11.103Z,101501.97
2022-10-06T07:56:37.346Z,101500.31
2022-10-06T07:59:03.914Z,101508.16
2022-10-06T08:01:30.890Z,101514.19
2022-10-06T08:03:57.194Z,101516.91
2022-10-06T08:06:24.427Z,101522.88
2022-10-06T08:08:53.141Z,101528.38
2022-10-06T08:11:19.895Z,101523.97
2022-10-06T08:13:48.149Z,101528.31
2022-10-06T08:16:14.659Z,101524.22
2022-10-06T08:18:46.364Z,101525.97
2022-10-06T08:21:13.753Z,101531.06
2022-10-06T08:23:40.455Z,101535.72
2022-10-06T08:26:06.709Z,101541.59
2022-10-06T08:28:33.000Z,101539.41
2022-10-06T08:30:59.348Z,101549.03
2022-10-06T08:33:26.896Z,101540.16
2022-10-06T08:35:53.174Z,101539.88
2022-10-06T08:38:19.882Z,101555.34
2022-10-06T08:40:46.131Z,101563.00
2022-10-06T08:43:13.696Z,101556.53
2022-10-06T08:45:40.076Z,101549.84
2022-10-06T08:48:07.647Z,101556.34
2022-10-06T08:50:35.092Z,101567.09
2022-10-06T08:53:01.335Z,101566.72
2022-10-06T08:55:27.625Z,101566.28
2022-10-06T08:57:53.871Z,101572.16
2022-10-06T09:00:22.182Z,101579.72
2022-10-06T09:02:48.820Z,101580.25
2022-10-06T09:05:19.188Z,101572.66
2022-10-06T09:07:45.906Z,101587.94
2022-10-06T09:10:12.208Z,101577.13
2022-10-06T09:12:38.468Z,101583.56
2022-10-06T09:15:06.262Z,101584.72
2022-10-06T09:17:32.531Z,101582.47
2022-10-06T09:19:58.936Z,101590.22
2022-10-06T09:22:25.232Z,101587.13
2022-10-06T09:24:51.677Z,101582.66
2022-10-06T09:27:18.431Z,101589.50
2022-10-06T09:29:44.679Z,101600.53
2022-10-06T09:32:10.953Z,101596.63
2022-10-06T09:34:37.450Z,101606.03
2022-10-06T09:37:03.770Z,101595.53
2022-10-06T09:39:32.992Z,101597.56
2022-10-06T09:41:59.245Z,101602.13
2022-10-06T09:44:25.578Z,101608.63
2022-10-06T09:46:52.483Z,101604.53
2022-10-06T09:49:18.827Z,101603.25
2022-10-06T09:51:45.082Z,101610.88
2022-10-06T09:54:11.390Z,101607.41
2022-10-06T09:56:37.810Z,101612.25
2022-10-06T09:59:04.111Z,101609.56
2022-10-06T10:01:30.698Z,101608.91
2022-10-06T10:04:20.567Z,101610.56
2022-10-06T10:06:46.890Z,101621.94
2022-10-06T10:09:15.579Z,101620.91
2022-10-06T10:12:02.840Z,101618.38
2022-10-06T10:14:29.098Z,101626.25
2022-10-06T10:16:55.351Z,101631.88
2022-10-06T10:19:21.610Z,101617.31
2022-10-06T10:21:47.889Z,101616.00
2022-10-06T10:24:14.867Z,101620.16
2022-10-06T10:26:41.064Z,101626.22
2022-10-06T10:29:07.348Z,101631.47
2022-10-06T10:31:33.703Z,101640.59
2022-10-06T10:34:12.663Z,101638.69
2022-10-06T10:36:48.246Z,101629.66
2022-10-06T10:39:14.531Z,101636.22
2022-10-06T10:41:40.796Z,101631.91
2022-10-06T10:44:07.050Z,101625.09
2022-10-06T10:46:33.445Z,101638.34
2022-10-06T10:48:59.797Z,101641.47
2022-10-06T10:51:26.064Z,101639.28
2022-10-06T10:53:52.341Z,101636.59
2022-10-06T10:56:19.404Z,101639.16
2022-10-06T10:58:45.627Z,101648.44
2022-10-06T11:01:11.960Z,101633.25
2022-10-06T11:03:38.266Z,101648.44
2022-10-06T11:06:04.605Z,101650.66
2022-10-06T11:08:30.855Z,101651.25
2022-10-06T11:10:57.109Z,101660.03
2022-10-06T11:13:23.684Z,101659.09
2022-10-06T11:15:49.933Z,101658.53
2022-10-06T11:18:19.471Z,101651.41
2022-10-06T11:20:47.710Z,101648.69
2022-10-06T11:23:13.977Z,101655.44
2022-10-06T11:25:40.236Z,101659.06
2022-10-06T11:28:06.543Z,101653.56
2022-10-06T11:30:33.263Z,101651.06
2022-10-06T11:33:01.449Z,101656.00
2022-10-06T11:35:27.927Z,101655.97
2022-10-06T11:37:54.219Z,101648.13
2022-10-06T11:40:20.661Z,101657.53
2022-10-06T11:42:46.956Z,101666.38
2022-10-06T11:45:16.202Z,101652.75
2022-10-06T11:47:42.488Z,101655.44
2022-10-06T11:50:08.783Z,101660.56
2022-10-06T11:52:35.052Z,101655.84
2022-10-06T11:55:01.641Z,101655.88
2022-10-06T11:57:31.162Z,101663.00
2022-10-06T11:59:57.611Z,101661.25
2022-10-06T12:02:24.003Z,101661.41
2022-10-06T12:04:50.296Z,101658.16
2022-10-06T12:07:16.576Z,101663.91
2022-10-06T12:09:44.728Z,101658.75
2022-10-06T12:12:11.443Z,101658.09
2022-10-06T12:16:35.309Z,101670.19
2022-10-06T12:17:23.955Z,101666.66
2022-10-06T12:19:50.242Z,101664.72
2022-10-06T12:22:16.995Z,101651.25
2022-10-06T12:24:43.303Z,101644.13
2022-10-06T12:27:09.573Z,101639.81
2022-10-06T12:29:35.869Z,101656.69
2022-10-06T12:32:02.142Z,101647.69
2022-10-06T12:34:28.414Z,101649.44
2022-10-06T12:36:54.671Z,101634.84
2022-10-06T12:39:20.921Z,101647.81
2022-10-06T12:41:47.847Z,101649.66
2022-10-06T12:44:14.331Z,101645.84
2022-10-06T12:46:40.642Z,101645.63
2022-10-06T12:49:06.975Z,101652.53
2022-10-06T12:51:34.868Z,101645.47
2022-10-06T12:54:01.449Z,101649.91
2022-10-06T12:56:28.233Z,101645.84
2022-10-06T12:58:54.617Z,101646.94
2022-10-06T13:01:24.848Z,101649.66
2022-10-06T13:03:51.182Z,101653.38
2022-10-06T13:06:17.440Z,101651.16
2022-10-06T13:08:43.727Z,101654.34
2022-10-06T13:11:10.150Z,101654.34
2022-10-06T13:13:36.400Z,101652.00
2022-10-06T13:16:02.777Z,101659.69
2022-10-06T13:18:29.640Z,101660.16
2022-10-06T13:20:55.908Z,101658.66
2022-10-06T13:23:22.323Z,101656.22
2022-10-06T13:25:48.586Z,101651.78
2022-10-06T13:28:14.900Z,101661.16
2022-10-06T13:30:41.421Z,101659.56
2022-10-06T13:33:07.822Z,101657.97
2022-10-06T13:35:34.071Z,101658.94
2022-10-06T13:38:02.649Z,101663.13
2022-10-06T13:40:44.127Z,101656.09
2022-10-06T13:43:11.598Z,101675.22
2022-10-06T13:45:37.866Z,101671.25
2022-10-06T13:48:04.111Z,101679.97
2022-10-06T13:50:30.381Z,101670.41
2022-10-06T13:52:56.665Z,101671.75
2022-10-06T13:55:22.942Z,101667.81
2022-10-06T13:57:49.222Z,101674.09
2022-10-06T14:00:17.640Z,101675.84
2022-10-06T14:02:44.912Z,101673.72
2022-10-06T14:05:11.226Z,101679.03
2022-10-06T14:07:37.484Z,101675.09
2022-10-06T14:10:03.739Z,101686.81
2022-10-06T14:12:30.004Z,101674.72
2022-10-06T14:14:56.567Z,101684.53
2022-10-06T14:17:22.971Z,101679.03
2022-10-06T14:19:49.244Z,101686.81
2022-10-06T14:22:15.498Z,101680.53
2022-10-06T14:24:41.755Z,101675.94
2022-10-06T14:27:08.367Z,101680.25
2022-10-06T14:29:36.186Z,101673.59
2022-10-06T14:32:02.451Z,101677.44
2022-10-06T14:34:29.154Z,101680.53
2022-10-06T14:36:57.160Z,101678.56
2022-10-06T14:39:23.402Z,101671.16
2022-10-06T14:41:50.100Z,101676.59
2022-10-06T14:44:16.497Z,101675.09
2022-10-06T14:46:42.964Z,101672.00
2022-10-06T14:49:09.499Z,101677.91
2022-10-06T14:51:37.045Z,101678.41
2022-10-06T14:54:03.662Z,101680.25
2022-10-06T14:56:31.423Z,101688.28
2022-10-06T14:58:59.918Z,101694.41
2022-10-06T15:01:26.233Z,101694.53
2022-10-06T15:03:52.631Z,101690.13
2022-10-06T15:06:37.771Z,101687.25
2022-10-06T15:09:04.040Z,101681.97
2022-10-06T15:11:30.300Z,101687.63
2022-10-06T15:13:57.203Z,101689.03
2022-10-06T15:16:23.465Z,101688.59
2022-10-06T15:18:49.731Z,101689.22
2022-10-06T15:21:16.030Z,101688.81
2022-10-06T15:23:42.288Z,101699.03
2022-10-06T15:26:27.318Z,101692.59
2022-10-06T15:29:03.142Z,101699.47
2022-10-06T15:31:29.673Z,101696.31
2022-10-06T15:33:56.032Z,101698.06
2022-10-06T15:36:24.611Z,101698.31
2022-10-06T15:38:51.104Z,101699.63
2022-10-06T15:41:17.384Z,101702.91
2022-10-06T15:43:55.760Z,101704.63
2022-10-06T15:46:22.056Z,101705.09
2022-10-06T15:48:48.527Z,101708.38
2022-10-06T15:51:14.855Z,101705.16
2022-10-06T15:53:41.103Z,101702.78
2022-10-06T15:56:07.364Z,101705.88
2022-10-06T15:58:33.630Z,101699.19
2022-10-06T16:00:59.903Z,101694.84
2022-10-06T16:03:41.090Z,101697.56
2022-10-06T16:06:09.048Z,101697.28
2022-10-06T16:08:35.425Z,101695.09
2022-10-06T16:11:01.782Z,101702.59
2022-10-06T16:16:43.350Z,101702.03
2022-10-06T16:19:10.522Z,101703.44
2022-10-06T16:21:36.812Z,101703.88
2022-10-06T16:24:03.110Z,101706.28
2022-10-06T16:26:29.433Z,101704.84
2022-10-06T16:28:55.700Z,101708.75
2022-10-06T16:31:22.120Z,101709.84
2022-10-06T16:33:49.008Z,101718.25
2022-10-06T16:36:15.322Z,101713.50
2022-10-06T16:38:41.632Z,101713.91
2022-10-06T16:41:08.132Z,101718.00
2022-10-06T16:43:34.383Z,101724.63
2022-10-06T16:46:02.761Z,101730.22
2022-10-06T16:48:29.087Z,101729.50
2022-10-06T16:50:55.360Z,101730.38
2022-10-06T16:53:22.378Z,101732.81
2022-10-06T16:55:48.618Z,101735.75
2022-10-06T16:58:14.882Z,101734.22
2022-10-06T17:00:41.183Z,101739.06
2022-10-06T17:03:07.517Z,101743.97
2022-10-06T17:05:34.573Z,101742.94
2022-10-06T17:08:00.788Z,101750.47
2022-10-06T17:10:27.115Z,101756.28
2022-10-06T17:12:53.460Z,101760.13
2022-10-06T17:15:19.855Z,101761.88
2022-10-06T17:17:46.127Z,101767.56
2022-10-06T17:20:13.854Z,101765.44
2022-10-06T17:22:40.424Z,101766.91
2022-10-06T17:25:06.829Z,101764.50
2022-10-06T17:27:35.159Z,101766.63
2022-10-06T17:30:04.645Z,101766.91
2022-10-06T17:32:30.896Z,101773.44
2022-10-06T17:34:57.155Z,101766.16
2022-10-06T17:37:23.419Z,101768.09
2022-10-06T17:39:49.698Z,101770.22
2022-10-06T17:42:16.058Z,101766.94
2022-10-06T17:44:42.334Z,101768.84
2022-10-06T17:47:12.593Z,101767.31
2022-10-06T17:49:40.030Z,101775.84
2022-10-06T17:52:06.288Z,101774.09
2022-10-06T17:54:34.278Z,101773.44
2022-10-06T17:57:00.463Z,101775.50
2022-10-06T17:59:28.734Z,101770.41
2022-10-06T18:01:56.098Z,101759.91
2022-10-06T18:04:22.486Z,101764.97
2022-10-06T18:06:48.735Z,101769.22
2022-10-06T18:09:15.007Z,101773.13
2022-10-06T18:11:48.269Z,101766.88
2022-10-06T18:14:14.658Z,101776.78
2022-10-06T18:16:41.034Z,101774.16
2022-10-06T18:19:07.462Z,101774.69
2022-10-06T18:21:37.287Z,101779.63
2022-10-06T18:24:03.598Z,101769.09
2022-10-06T18:26:29.855Z,101768.41
2022-10-06T18:28:56.274Z,101767.16
2022-10-06T18:31:22.596Z,101774.38
2022-10-06T18:36:35.220Z,101779.28
2022-10-06T18:39:01.526Z,101777.63
2022-10-06T18:41:28.154Z,101771.00
2022-10-06T18:43:54.455Z,101780.72
2022-10-06T18:46:39.528Z,101781.56
2022-10-06T18:49:05.970Z,101781.53
2022-10-06T18:51:32.241Z,101786.03
2022-10-06T18:53:58.813Z,101784.06
2022-10-06T18:56:25.759Z,101783.22
2022-10-06T18:58:52.006Z,101783.94
2022-10-06T19:01:19.416Z,101789.16
2022-10-06T19:03:45.840Z,101794.22
2022-10-06T19:06:12.116Z,101792.03
2022-10-06T19:08:38.481Z,101790.94
2022-10-06T19:11:23.590Z,101794.59
2022-10-06T19:13:51.819Z,101799.31
2022-10-06T19:16:18.099Z,101803.81
2022-10-06T19:18:44.425Z,101803.81
2022-10-06T19:21:10.681Z,101801.06
2022-10-06T19:23:36.938Z,101798.84
2022-10-06T19:26:03.238Z,101797.59
2022-10-06T19:28:30.216Z,101802.72
2022-10-06T19:30:56.563Z,101806.22
2022-10-06T19:33:22.876Z,101807.06
2022-10-06T19:35:50.294Z,101804.31
2022-10-06T19:38:16.548Z,101800.81
2022-10-06T19:40:42.804Z,101813.47
2022-10-06T19:43:09.068Z,101804.41
2022-10-06T19:45:35.319Z,101812.78
2022-10-06T19:48:01.564Z,101810.72
2022-10-06T19:50:27.806Z,101815.16
2022-10-06T19:52:54.058Z,101811.50
2022-10-06T19:55:22.786Z,101807.09
2022-10-06T19:57:50.616Z,101813.56
2022-10-06T20:00:16.967Z,101811.91
2022-10-06T20:02:44.138Z,101817.28
2022-10-06T20:05:10.316Z,101825.88
2022-10-06T20:07:36.579Z,101820.50
2022-10-06T20:10:03.200Z,101819.22
2022-10-06T20:12:29.472Z,101822.41
2022-10-06T20:14:55.895Z,101821.31
2022-10-06T20:17:22.169Z,101821.47
2022-10-06T20:19:48.423Z,101819.78
2022-10-06T20:22:14.735Z,101821.84
2022-10-06T20:24:41.007Z,101820.31
2022-10-06T20:27:07.268Z,101823.16
2022-10-06T20:29:34.549Z,101823.22
2022-10-06T20:32:00.878Z,101816.34
2022-10-06T20:34:27.206Z,101821.94
2022-10-06T20:36:56.129Z,101829.72
2022-10-06T20:39:41.462Z,101817.03
2022-10-06T20:42:12.233Z,101827.69
2022-10-06T20:44:44.552Z,101824.28
2022-10-06T20:47:10.814Z,101827.56
2022-10-06T20:49:37.081Z,101833.03
2022-10-06T20:52:04.370Z,101824.03
2022-10-06T20:54:37.224Z,101829.13
2022-10-06T20:57:03.813Z,101829.78
2022-10-06T20:59:30.062Z,101831.53
2022-10-06T21:01:59.913Z,101834.22
2022-10-06T21:04:27.511Z,101831.81
2022-10-06T21:06:53.882Z,101829.94
2022-10-06T21:09:20.458Z,101833.63
2022-10-06T21:11:46.832Z,101827.19
2022-10-06T21:14:13.223Z,101831.81
2022-10-06T21:16:39.608Z,101822.44
2022-10-06T21:19:08.350Z,101821.44
2022-10-06T21:21:34.715Z,101824.94
2022-10-06T21:24:01.090Z,101815.97
2022-10-06T21:26:27.846Z,101815.53
2022-10-06T21:28:54.212Z,101819.03
2022-10-06T21:31:20.701Z,101815.00
2022-10-06T21:33:47.105Z,101813.44
2022-10-06T21:36:17.054Z,101814.09
2022-10-06T21:38:43.415Z,101810.41
2022-10-06T21:41:29.441Z,101808.72
2022-10-06T21:43:55.815Z,101802.41
2022-10-06T21:46:28.390Z,101806.09
2022-10-06T21:48:55.328Z,101796.06
2022-10-06T21:51:21.743Z,101801.38
2022-10-06T21:53:48.107Z,101808.56
2022-10-06T21:56:14.523Z,101816.66
2022-10-06T21:58:40.891Z,101805.28
2022-10-06T22:01:07.250Z,101802.66
2022-10-06T22:03:33.618Z,101806.50
2022-10-06T22:06:00.023Z,101805.69
2022-10-06T22:08:26.396Z,101803.88
2022-10-06T22:10:52.799Z,101806.59
2022-10-06T22:13:19.166Z,101801.19
2022-10-06T22:15:45.580Z,101807.34
2022-10-06T22:18:12.031Z,101804.72
2022-10-06T22:20:38.440Z,101801.00
2022-10-06T22:23:05.200Z,101800.19
2022-10-06T22:25:31.619Z,101801.75
2022-10-06T22:27:58.073Z,101807.97
2022-10-06T22:30:24.508Z,101806.63
2022-10-06T22:32:50.919Z,101798.88
2022-10-06T22:35:17.284Z,101792.09
2022-10-06T22:37:43.813Z,101799.03
2022-10-06T22:40:10.297Z,101804.50
2022-10-06T22:42:36.658Z,101797.22
2022-10-06T22:45:03.074Z,101806.25
2022-10-06T22:47:29.464Z,101802.78
2022-10-06T22:49:55.833Z,101808.34
2022-10-06T22:52:22.264Z,101796.91
2022-10-06T22:54:48.637Z,101798.31
2022-10-06T22:57:15.007Z,101791.72
2022-10-06T22:59:41.387Z,101790.44
2022-10-06T23:02:07.759Z,101792.09
2022-10-06T23:04:34.144Z,101790.13
2022-10-06T23:07:00.507Z,101786.31
2022-10-06T23:09:26.899Z,101781.16
2022-10-06T23:11:53.260Z,101790.19
2022-10-06T23:14:19.623Z,101782.16
2022-10-06T23:16:46.095Z,101780.28
2022-10-06T23:19:12.518Z,101784.63
2022-10-06T23:21:40.291Z,101787.69
2022-10-06T23:24:07.218Z,101784.34
2022-10-06T23:26:33.668Z,101789.63
2022-10-06T23:29:00.065Z,101788.19
2022-10-06T23:31:26.524Z,101788.13
2022-10-06T23:33:52.927Z,101788.13
2022-10-06T23:36:19.348Z,101782.91
2022-10-06T23:38:45.788Z,101783.97
2022-10-06T23:41:12.170Z,101774.94
2022-10-06T23:43:38.552Z,101778.47
2022-10-06T23:46:04.996Z,101782.09
2022-10-06T23:48:31.449Z,101782.97
2022-10-06T23:50:58.051Z,101785.00
2022-10-06T23:53:24.491Z,101786.00
2022-10-06T23:55:50.871Z,101782.59
2022-10-06T23:58:17.245Z,101775.63
